Pompeys Pillar, MT (59064)

7:10 AM MDT on August 23, 2014 (GMT -0600)
Custer | Change Station
CLOSE
Current Station
Personal Weather Station
Location: Waco, MT
Elevation: 2785 ft
Nearby Weather Stations

Elev 2785 ft 46.07 °N, 107.72 °W | Updated 4 minutes ago

Light Rain
Light Rain Fog
61.8 °F
Feels Like 61.8 °F
N
4.0
Wind Variable Wind from East
Gusts 6.0 mph

Today
High -- | Low -- °F
--% Chance of Precip.
Yesterday
High -- | Low -- °F
Precip. -- in
6:21 AM 8:06 PM
Waning Crescent, 4% visible
Pressure 29.84 in
Visibility 0.2 miles
Clouds Mostly Cloudy 200 ft
Overcast 600 ft
Dew Point 61 °F
Humidity 96%
Rainfall 0.34 in
Snow Depth Not available.
UV 0 out of 12
Pollen .90 out of 12
Air Quality Not available.
Flu Activity Not available.
METAR KBIL 231253Z 22007KT 1/4SM R10L/2000VP6000FT -RA FG BKN002 OVC006 14/14 A2989 RMK AO2 SLP104 P0003 T01390139 $

More Conditions Fewer Conditions

Pressure 29.84 in
Visibility 0.2 miles
Clouds Mostly Cloudy 200 ft
Overcast 600 ft
Dew Point 61 °F
Humidity 96%
Rainfall 0.34 in
Snow Depth Not available.
UV 0 out of 12
Pollen .90 out of 12
Air Quality Not available.
Flu Activity Not available.
METAR KBIL 231253Z 22007KT 1/4SM R10L/2000VP6000FT -RA FG BKN002 OVC006 14/14 A2989 RMK AO2 SLP104 P0003 T01390139 $

More Conditions Fewer Conditions

10-Day Weather Forecast

Almanac

Astronomy

Aug. 23, 2014 Rise Set
Actual Time 6:21 AM MDT 8:06 PM MDT
Civil Twilight 5:49 AM MDT 8:38 PM MDT
Nautical Twilight 5:11 AM MDT 9:16 PM MDT
Astronomical Twilight 4:28 AM MDT 9:58 PM MDT
Moon 4:38 AM MDT 6:53 PM MDT
Length of Visible Light 14h 48m
Length of Day
13h 44m
Tomorrow will be 3m 1s shorter.
Waning Crescent, 4% of the Moon is Illuminated
Today
Waning Crescent
Aug 25
New
Sep 2
First Quarter
Sep 8
Full
Sep 15
Last Quarter

Today's Extremes

State Highs State Lows

Community

WunderPhotos

Upload Photos

1,746,452 photos uploaded!

WunderBlogs® & News

By Dr. Jeff Masters
Director of Meteorology, Weather Underground
By Kari Strenfel
Meteorologist, Weather Underground
By Christopher C. Burt
Weather Historian, Weather Underground
August 23, 2014
August 23, 2014
August 23, 2014

Nearby

Snow Depth

Station Depth Elevation
Cole Creek 1 in 7850 ft
Burnt Mountain 0 in 5880 ft
Crystal Lake 1 in 6050 ft
Placer Basin 0 in 8830 ft
White Mill 2 in 8700 ft

Earthquake Activity

City Distance Mag. Time & Date
No recent earthquake activity has been reported nearby.
Minimum magnitude displayed is 2.5.

Coastal Water Temperatures

Place Temperature
No Stations Reporting

Nearby Weather Stations